Time;durP1;ratioP1;P1;durP2;ratioP2;P2;SDS_P1;SDS_P2;PMS_P1;PMS_P2;Temp;Humidity;BMP_temperature;BMP_pressure;BME280_temperature;BME280_humidity;BME280_pressure;Samples;Min_cycle;Max_cycle;Signal;HPM_P1;HPM_P2
2021/10/04 00:02:03;;;;;;;8.48;1.80;;;;;;;;;;4931643;28;20028;-76
2021/10/04 00:04:29;;;;;;;8.68;1.77;;;;;;;;;;4932472;29;20024;-75
2021/10/04 00:06:58;;;;;;;9.52;2.00;;;;;;;;;;4935564;29;20039;-76
2021/10/04 00:09:25;;;;;;;11.60;2.20;;;;;;;;;;4942383;29;20027;-77
2021/10/04 00:11:51;;;;;;;9.73;2.00;;;;;;;;;;4931223;29;20043;-75
2021/10/04 00:14:20;;;;;;;11.63;2.05;;;;;;;;;;4932497;29;20028;-75
2021/10/04 00:16:47;;;;;;;9.48;1.95;;;;;;;;;;4947372;28;20136;-76
2021/10/04 00:19:13;;;;;;;8.73;2.35;;;;;;;;;;4936320;28;20506;-75
2021/10/04 00:21:39;;;;;;;4.88;1.98;;;;;;;;;;4931759;29;20043;-75
2021/10/04 00:24:05;;;;;;;12.57;3.22;;;;;;;;;;4938985;29;20035;-75
2021/10/04 00:26:31;;;;;;;9.45;1.90;;;;;;;;;;4928874;29;20020;-75
2021/10/04 00:28:58;;;;;;;9.35;2.25;;;;;;;;;;4935276;29;20028;-76
2021/10/04 00:31:24;;;;;;;7.43;1.77;;;;;;;;;;4933773;29;20034;-75
2021/10/04 00:33:50;;;;;;;12.00;2.17;;;;;;;;;;4932714;29;20027;-75
2021/10/04 00:36:16;;;;;;;7.78;2.20;;;;;;;;;;4936865;29;20404;-75
2021/10/04 00:38:42;;;;;;;8.15;2.05;;;;;;;;;;4937561;29;20421;-74
2021/10/04 00:41:08;;;;;;;11.57;2.03;;;;;;;;;;4940662;29;20035;-75
2021/10/04 00:43:34;;;;;;;7.32;2.45;;;;;;;;;;4938623;29;20034;-75
2021/10/04 00:46:01;;;;;;;14.27;2.65;;;;;;;;;;4933928;29;20039;-76
2021/10/04 00:48:27;;;;;;;13.02;2.20;;;;;;;;;;4940732;28;20528;-76
2021/10/04 00:50:53;;;;;;;9.13;2.22;;;;;;;;;;4939874;28;20036;-75
2021/10/04 00:53:19;;;;;;;9.55;2.15;;;;;;;;;;4946571;28;20088;-75
2021/10/04 00:55:45;;;;;;;13.77;2.50;;;;;;;;;;4934549;29;20047;-75
2021/10/04 00:58:11;;;;;;;13.65;2.20;;;;;;;;;;4934139;29;20055;-77
2021/10/04 01:00:38;;;;;;;7.57;2.67;;;;;;;;;;4932655;29;20044;-75
2021/10/04 01:03:04;;;;;;;11.68;2.30;;;;;;;;;;4940058;29;20027;-75
2021/10/04 01:05:30;;;;;;;13.02;2.67;;;;;;;;;;4946277;29;20034;-74
2021/10/04 01:07:56;;;;;;;12.88;2.75;;;;;;;;;;4934681;29;20031;-76
2021/10/04 01:10:22;;;;;;;10.55;2.85;;;;;;;;;;4936193;28;20060;-75
2021/10/04 01:12:49;;;;;;;9.70;2.17;;;;;;;;;;4942443;29;20094;-76
2021/10/04 01:15:16;;;;;;;8.02;2.25;;;;;;;;;;4941303;28;20027;-76
2021/10/04 01:17:42;;;;;;;8.77;2.40;;;;;;;;;;4940999;28;20024;-75
2021/10/04 01:20:10;;;;;;;8.43;2.03;;;;;;;;;;4938241;29;20028;-76
2021/10/04 01:22:36;;;;;;;6.28;2.00;;;;;;;;;;4935634;29;20059;-76
2021/10/04 01:25:03;;;;;;;13.10;2.15;;;;;;;;;;4934860;29;20023;-75
2021/10/04 01:27:29;;;;;;;18.02;2.35;;;;;;;;;;4937229;29;20020;-75
2021/10/04 01:29:55;;;;;;;11.43;2.50;;;;;;;;;;4932779;29;20030;-75
2021/10/04 01:32:21;;;;;;;15.93;2.38;;;;;;;;;;4950093;29;20052;-76
2021/10/04 01:34:47;;;;;;;6.90;1.90;;;;;;;;;;4938599;29;20038;-75
2021/10/04 01:37:13;;;;;;;9.85;2.08;;;;;;;;;;4942419;29;20044;-75
2021/10/04 01:39:39;;;;;;;9.07;2.20;;;;;;;;;;4935665;29;20024;-76
2021/10/04 01:42:05;;;;;;;14.57;2.50;;;;;;;;;;4939490;29;20036;-76
2021/10/04 01:44:31;;;;;;;14.27;2.75;;;;;;;;;;4931687;29;20107;-75
2021/10/04 01:46:57;;;;;;;12.23;2.30;;;;;;;;;;4932450;29;20024;-78
2021/10/04 01:49:23;;;;;;;9.30;2.13;;;;;;;;;;4968272;28;20070;-76
2021/10/04 01:51:49;;;;;;;7.97;2.17;;;;;;;;;;4935324;29;20036;-75
2021/10/04 01:54:15;;;;;;;9.75;2.08;;;;;;;;;;4937267;29;20106;-78
2021/10/04 01:56:41;;;;;;;12.95;2.92;;;;;;;;;;4932762;29;20075;-77
2021/10/04 01:59:07;;;;;;;10.60;2.25;;;;;;;;;;4931792;29;20027;-76
2021/10/04 02:01:34;;;;;;;7.95;2.35;;;;;;;;;;4937159;28;20492;-77
2021/10/04 02:04:00;;;;;;;14.05;2.50;;;;;;;;;;4933487;29;20071;-76
2021/10/04 02:06:26;;;;;;;9.85;2.20;;;;;;;;;;4941046;29;20028;-77
2021/10/04 02:08:52;;;;;;;8.90;2.42;;;;;;;;;;4925110;29;20028;-76
2021/10/04 02:11:18;;;;;;;12.40;2.03;;;;;;;;;;4936365;29;20107;-76
2021/10/04 02:13:44;;;;;;;8.65;1.98;;;;;;;;;;4933261;29;20039;-77
2021/10/04 02:16:10;;;;;;;11.00;2.15;;;;;;;;;;4946483;28;21001;-75
2021/10/04 02:18:36;;;;;;;11.73;2.40;;;;;;;;;;4935563;29;20038;-76
2021/10/04 02:21:02;;;;;;;8.07;2.10;;;;;;;;;;4933430;29;20032;-77
2021/10/04 02:23:28;;;;;;;7.45;2.22;;;;;;;;;;4934228;29;20523;-76
2021/10/04 02:25:54;;;;;;;13.00;3.38;;;;;;;;;;4933574;29;20547;-75
2021/10/04 02:28:21;;;;;;;8.52;2.00;;;;;;;;;;4932441;29;20448;-77
2021/10/04 02:30:47;;;;;;;6.88;2.78;;;;;;;;;;4934569;29;20387;-77
2021/10/04 02:33:13;;;;;;;10.23;2.42;;;;;;;;;;4948081;28;20110;-77
2021/10/04 02:35:40;;;;;;;13.73;1.75;;;;;;;;;;4948505;28;20040;-76
2021/10/04 02:38:07;;;;;;;18.75;5.07;;;;;;;;;;4937720;29;20619;-77
2021/10/04 02:40:33;;;;;;;7.85;2.20;;;;;;;;;;4931333;29;20396;-77
2021/10/04 02:42:59;;;;;;;8.93;1.98;;;;;;;;;;4938278;29;20083;-76
2021/10/04 02:45:26;;;;;;;7.32;3.30;;;;;;;;;;4933993;29;20527;-76
2021/10/04 02:47:53;;;;;;;11.35;2.92;;;;;;;;;;4943237;28;20031;-77
2021/10/04 02:50:20;;;;;;;7.47;2.17;;;;;;;;;;4933543;29;20042;-76
2021/10/04 02:52:47;;;;;;;8.63;2.10;;;;;;;;;;4933523;29;20488;-76
2021/10/04 02:55:13;;;;;;;11.13;2.50;;;;;;;;;;4931864;29;20032;-76
2021/10/04 02:57:39;;;;;;;12.23;4.03;;;;;;;;;;4935609;29;20055;-76
2021/10/04 03:00:06;;;;;;;13.20;1.90;;;;;;;;;;4929457;29;20871;-77
2021/10/04 03:02:32;;;;;;;5.53;1.90;;;;;;;;;;4948214;28;20404;-76
2021/10/04 03:04:58;;;;;;;10.95;2.28;;;;;;;;;;4933086;29;20110;-76
2021/10/04 03:07:24;;;;;;;14.70;2.20;;;;;;;;;;4933642;29;20031;-76
2021/10/04 03:09:51;;;;;;;5.53;1.98;;;;;;;;;;4935858;29;20032;-79
2021/10/04 03:12:18;;;;;;;13.88;2.20;;;;;;;;;;4948319;28;20515;-76
2021/10/04 03:14:44;;;;;;;11.95;2.58;;;;;;;;;;4930589;29;20036;-75
2021/10/04 03:17:10;;;;;;;16.23;2.88;;;;;;;;;;4932721;29;20036;-76
2021/10/04 03:19:36;;;;;;;7.97;2.40;;;;;;;;;;4935715;29;20090;-78
2021/10/04 03:22:02;;;;;;;11.45;2.70;;;;;;;;;;4936876;29;20031;-76
2021/10/04 03:24:28;;;;;;;9.25;2.22;;;;;;;;;;4927529;29;20029;-76
2021/10/04 03:26:54;;;;;;;9.30;2.13;;;;;;;;;;4932778;29;20152;-76
2021/10/04 03:29:20;;;;;;;10.32;2.30;;;;;;;;;;4931958;29;20019;-77
2021/10/04 03:31:46;;;;;;;12.20;2.53;;;;;;;;;;4932928;29;20123;-75
2021/10/04 03:34:12;;;;;;;14.02;2.38;;;;;;;;;;4932419;29;20110;-76
2021/10/04 03:36:39;;;;;;;9.43;2.33;;;;;;;;;;4931685;29;20055;-75
2021/10/04 03:39:06;;;;;;;9.18;2.08;;;;;;;;;;4935145;29;20043;-76
2021/10/04 03:41:32;;;;;;;9.38;2.20;;;;;;;;;;4935902;29;20058;-76
2021/10/04 03:43:59;;;;;;;12.18;2.50;;;;;;;;;;4932544;29;20031;-77
2021/10/04 03:46:26;;;;;;;11.15;2.55;;;;;;;;;;4945232;28;20142;-76
2021/10/04 03:48:52;;;;;;;10.02;2.42;;;;;;;;;;4935299;28;20052;-76
2021/10/04 03:51:18;;;;;;;9.98;2.17;;;;;;;;;;4939521;29;20032;-75
2021/10/04 03:53:44;;;;;;;7.47;1.80;;;;;;;;;;4953576;28;20042;-76
2021/10/04 03:56:10;;;;;;;12.45;3.97;;;;;;;;;;4933306;29;20050;-75
2021/10/04 03:58:36;;;;;;;15.80;2.45;;;;;;;;;;4930945;29;20035;-76
2021/10/04 04:01:02;;;;;;;9.07;2.40;;;;;;;;;;4941367;29;20027;-77
2021/10/04 04:03:28;;;;;;;16.23;2.85;;;;;;;;;;4939075;29;20031;-75
2021/10/04 04:05:55;;;;;;;12.75;3.22;;;;;;;;;;4936816;28;20082;-75
2021/10/04 04:08:21;;;;;;;14.38;2.15;;;;;;;;;;4931828;29;20048;-76
2021/10/04 04:10:47;;;;;;;12.18;2.30;;;;;;;;;;4945886;29;20112;-75
2021/10/04 04:13:13;;;;;;;8.23;2.03;;;;;;;;;;4941011;29;20039;-76
2021/10/04 04:15:40;;;;;;;13.80;2.63;;;;;;;;;;4935732;29;20027;-76
2021/10/04 04:18:06;;;;;;;8.15;2.33;;;;;;;;;;4936146;29;20024;-80
2021/10/04 04:20:32;;;;;;;8.43;3.50;;;;;;;;;;4945596;28;20051;-76
2021/10/04 04:22:58;;;;;;;11.02;2.95;;;;;;;;;;4942119;29;20031;-75
2021/10/04 04:25:24;;;;;;;9.95;2.13;;;;;;;;;;4936506;29;20038;-76
2021/10/04 04:27:50;;;;;;;11.30;2.58;;;;;;;;;;4938338;29;20070;-76
2021/10/04 04:30:16;;;;;;;10.05;3.42;;;;;;;;;;4932197;29;20024;-76
2021/10/04 04:32:43;;;;;;;16.88;2.63;;;;;;;;;;4938768;29;20040;-77
2021/10/04 04:35:09;;;;;;;10.52;2.53;;;;;;;;;;4934212;28;20086;-76
2021/10/04 04:37:36;;;;;;;12.55;2.72;;;;;;;;;;4934295;29;20055;-75
2021/10/04 04:40:04;;;;;;;11.07;2.38;;;;;;;;;;4934052;29;20142;-76
2021/10/04 04:42:30;;;;;;;11.27;2.25;;;;;;;;;;4936146;29;20027;-76
2021/10/04 04:44:56;;;;;;;11.13;2.13;;;;;;;;;;4934527;29;20051;-76
2021/10/04 04:47:22;;;;;;;10.80;2.42;;;;;;;;;;4936556;29;20040;-77
2021/10/04 04:49:48;;;;;;;10.23;2.50;;;;;;;;;;4937203;29;20102;-76
2021/10/04 04:52:14;;;;;;;10.27;2.60;;;;;;;;;;4929810;29;20076;-76
2021/10/04 04:54:40;;;;;;;11.10;1.90;;;;;;;;;;4932542;29;20035;-76
2021/10/04 04:57:06;;;;;;;14.77;2.50;;;;;;;;;;4945786;28;20052;-76
2021/10/04 04:59:33;;;;;;;12.82;3.17;;;;;;;;;;4931569;29;20043;-76
2021/10/04 05:01:59;;;;;;;10.98;1.90;;;;;;;;;;4937794;28;20028;-76
2021/10/04 05:04:26;;;;;;;9.15;1.95;;;;;;;;;;4931304;29;20020;-75
2021/10/04 05:06:52;;;;;;;11.40;2.38;;;;;;;;;;4935468;29;20067;-75
2021/10/04 05:09:18;;;;;;;9.52;2.20;;;;;;;;;;4931572;29;20023;-76
2021/10/04 05:14:20;;;;;;;11.15;2.72;;;;;;;;;;3327633;23;20051;-75
2021/10/04 05:16:49;;;;;;;8.57;2.40;;;;;;;;;;4969593;28;20041;-76
2021/10/04 05:19:16;;;;;;;9.00;2.25;;;;;;;;;;4969074;28;20428;-76
2021/10/04 05:21:42;;;;;;;9.95;2.05;;;;;;;;;;4970509;28;20375;-76
2021/10/04 05:24:08;;;;;;;10.10;2.10;;;;;;;;;;4966473;28;20026;-76
2021/10/04 05:26:34;;;;;;;10.00;2.15;;;;;;;;;;4968481;28;20038;-76
2021/10/04 05:29:00;;;;;;;9.20;2.30;;;;;;;;;;4980349;28;20031;-77
2021/10/04 05:31:26;;;;;;;10.45;2.30;;;;;;;;;;4973186;28;20030;-76
2021/10/04 05:33:52;;;;;;;12.00;2.50;;;;;;;;;;4968484;28;20045;-76
2021/10/04 05:36:18;;;;;;;14.82;2.50;;;;;;;;;;4972212;28;20066;-76
2021/10/04 05:38:46;;;;;;;10.60;2.72;;;;;;;;;;4970317;28;20070;-75
2021/10/04 05:41:12;;;;;;;11.05;2.95;;;;;;;;;;4972751;28;20027;-76
2021/10/04 05:43:39;;;;;;;13.60;2.80;;;;;;;;;;4972545;28;20023;-76
2021/10/04 05:46:05;;;;;;;6.45;1.88;;;;;;;;;;4978633;28;20049;-77
2021/10/04 05:48:31;;;;;;;6.47;2.10;;;;;;;;;;4972499;28;20018;-78
2021/10/04 05:50:58;;;;;;;14.45;2.28;;;;;;;;;;4971878;28;20129;-77
2021/10/04 05:53:24;;;;;;;11.55;2.80;;;;;;;;;;4972299;28;20019;-77
2021/10/04 05:55:50;;;;;;;8.30;2.47;;;;;;;;;;4967631;28;20031;-77
2021/10/04 05:58:16;;;;;;;11.25;2.78;;;;;;;;;;4977338;28;20555;-77
2021/10/04 06:00:43;;;;;;;14.45;2.05;;;;;;;;;;4978350;28;20031;-77
2021/10/04 06:03:09;;;;;;;9.30;2.15;;;;;;;;;;4974935;28;20035;-78
2021/10/04 06:05:35;;;;;;;10.82;2.60;;;;;;;;;;4983004;28;20023;-77
2021/10/04 06:08:02;;;;;;;7.43;2.35;;;;;;;;;;4973228;28;20482;-77
2021/10/04 06:10:28;;;;;;;16.98;3.38;;;;;;;;;;4967246;28;20441;-77
2021/10/04 06:12:54;;;;;;;15.80;2.78;;;;;;;;;;4969206;28;20039;-77
2021/10/04 06:15:20;;;;;;;12.80;3.42;;;;;;;;;;4972093;28;20065;-78
2021/10/04 06:17:46;;;;;;;12.43;3.38;;;;;;;;;;4972907;28;20046;-78
2021/10/04 06:20:13;;;;;;;9.75;2.80;;;;;;;;;;4971164;28;20030;-77
2021/10/04 06:22:40;;;;;;;10.60;3.47;;;;;;;;;;4972568;28;20030;-77
2021/10/04 06:25:07;;;;;;;17.35;4.20;;;;;;;;;;4981920;28;20393;-77
2021/10/04 06:27:33;;;;;;;7.78;2.42;;;;;;;;;;4970591;28;20027;-77
2021/10/04 06:29:59;;;;;;;9.73;2.85;;;;;;;;;;4967868;28;20074;-78
2021/10/04 06:32:25;;;;;;;11.38;2.97;;;;;;;;;;4970448;28;20109;-78
2021/10/04 06:34:51;;;;;;;12.15;3.40;;;;;;;;;;4971137;28;20401;-77
2021/10/04 06:37:17;;;;;;;11.13;3.35;;;;;;;;;;4975965;28;20092;-77
2021/10/04 06:39:44;;;;;;;10.88;3.20;;;;;;;;;;4968550;28;20042;-77
2021/10/04 06:42:10;;;;;;;13.30;4.15;;;;;;;;;;4962883;28;20041;-78
2021/10/04 06:44:37;;;;;;;9.75;3.25;;;;;;;;;;4986409;28;20048;-78
2021/10/04 06:47:03;;;;;;;11.55;2.83;;;;;;;;;;4987701;28;20424;-77
2021/10/04 06:49:29;;;;;;;14.23;3.08;;;;;;;;;;4967257;28;20034;-77
2021/10/04 06:51:55;;;;;;;13.40;3.35;;;;;;;;;;4969445;28;20182;-77
2021/10/04 06:54:21;;;;;;;15.73;3.08;;;;;;;;;;4971980;28;20142;-78
2021/10/04 06:56:47;;;;;;;10.50;3.15;;;;;;;;;;4972111;28;20042;-77
2021/10/04 06:59:13;;;;;;;9.90;3.47;;;;;;;;;;4972840;28;20409;-77
2021/10/04 07:01:39;;;;;;;14.30;3.53;;;;;;;;;;4965432;28;20035;-77
2021/10/04 07:04:07;;;;;;;11.13;2.83;;;;;;;;;;4972512;28;20034;-77
2021/10/04 07:06:35;;;;;;;15.00;3.10;;;;;;;;;;4976511;28;20596;-77
2021/10/04 07:09:01;;;;;;;12.27;2.88;;;;;;;;;;4974080;28;20049;-76
2021/10/04 07:11:27;;;;;;;9.63;2.65;;;;;;;;;;4976426;28;20480;-77
2021/10/04 07:13:54;;;;;;;10.60;3.15;;;;;;;;;;4982467;28;20030;-76
2021/10/04 07:16:20;;;;;;;10.13;2.85;;;;;;;;;;4982508;28;20050;-77
2021/10/04 07:18:46;;;;;;;9.02;2.95;;;;;;;;;;4968350;28;20111;-76
2021/10/04 07:21:13;;;;;;;11.70;2.80;;;;;;;;;;4978122;28;20117;-77
2021/10/04 07:23:39;;;;;;;10.55;3.05;;;;;;;;;;4971487;28;20077;-76
2021/10/04 07:26:05;;;;;;;12.95;3.05;;;;;;;;;;4969275;28;20035;-77
2021/10/04 07:28:31;;;;;;;9.52;2.25;;;;;;;;;;4971699;28;20132;-77
2021/10/04 07:30:58;;;;;;;10.50;2.95;;;;;;;;;;4969454;28;20125;-77
2021/10/04 07:33:24;;;;;;;13.38;3.40;;;;;;;;;;4982424;28;20424;-77
2021/10/04 07:35:51;;;;;;;16.17;3.30;;;;;;;;;;4999158;28;20437;-78
2021/10/04 07:38:17;;;;;;;11.52;2.58;;;;;;;;;;4970796;28;20019;-77
2021/10/04 07:40:43;;;;;;;13.90;3.08;;;;;;;;;;4963681;28;20035;-77
2021/10/04 07:43:09;;;;;;;13.25;3.17;;;;;;;;;;4973180;28;20030;-76
2021/10/04 07:45:36;;;;;;;9.93;3.00;;;;;;;;;;4975370;28;20026;-78
2021/10/04 07:48:02;;;;;;;19.20;3.47;;;;;;;;;;4977364;28;20078;-77
2021/10/04 07:50:28;;;;;;;8.38;2.35;;;;;;;;;;4968771;28;20111;-76
2021/10/04 07:52:54;;;;;;;14.35;3.13;;;;;;;;;;4978734;28;20033;-77
2021/10/04 07:55:22;;;;;;;9.55;2.35;;;;;;;;;;4978630;28;20035;-77
2021/10/04 07:57:51;;;;;;;10.20;2.90;;;;;;;;;;4976939;28;20044;-77
2021/10/04 08:00:18;;;;;;;10.27;2.83;;;;;;;;;;4976345;28;20076;-78
2021/10/04 08:02:44;;;;;;;18.63;4.10;;;;;;;;;;4974772;28;20035;-76
2021/10/04 08:05:11;;;;;;;15.25;3.22;;;;;;;;;;4983377;28;20119;-77
2021/10/04 08:07:40;;;;;;;19.80;4.95;;;;;;;;;;4969760;28;20076;-77
2021/10/04 08:10:08;;;;;;;8.00;2.53;;;;;;;;;;4992641;28;20030;-78
2021/10/04 08:12:34;;;;;;;16.80;2.85;;;;;;;;;;4984274;28;20069;-75
2021/10/04 08:15:01;;;;;;;12.15;2.55;;;;;;;;;;4977197;28;20054;-76
2021/10/04 08:17:27;;;;;;;12.07;3.20;;;;;;;;;;4984991;28;20033;-77
2021/10/04 08:19:53;;;;;;;9.45;2.53;;;;;;;;;;4965442;28;20030;-76
2021/10/04 08:22:19;;;;;;;12.85;2.90;;;;;;;;;;4974772;28;20022;-76
2021/10/04 08:24:45;;;;;;;17.25;3.55;;;;;;;;;;4974255;28;20066;-76
2021/10/04 08:27:12;;;;;;;9.75;2.20;;;;;;;;;;4970526;28;20030;-76
2021/10/04 08:29:38;;;;;;;13.70;2.67;;;;;;;;;;4972179;28;20045;-76
2021/10/04 08:32:05;;;;;;;9.40;2.65;;;;;;;;;;4968120;28;20034;-76
2021/10/04 08:34:31;;;;;;;11.13;2.80;;;;;;;;;;4970409;28;20027;-76
2021/10/04 08:36:57;;;;;;;12.05;2.75;;;;;;;;;;4967226;28;20035;-76
2021/10/04 08:39:23;;;;;;;10.85;2.33;;;;;;;;;;4956976;28;20101;-78
2021/10/04 08:41:51;;;;;;;8.95;2.75;;;;;;;;;;4972943;28;20026;-77
2021/10/04 08:44:17;;;;;;;8.75;2.20;;;;;;;;;;4970619;28;20504;-76
2021/10/04 08:46:45;;;;;;;17.88;3.78;;;;;;;;;;4968275;28;20022;-76
2021/10/04 08:49:15;;;;;;;18.58;2.97;;;;;;;;;;4972923;28;20026;-78
2021/10/04 08:51:42;;;;;;;10.52;2.67;;;;;;;;;;4976544;28;20030;-76
2021/10/04 08:54:08;;;;;;;13.82;2.85;;;;;;;;;;4978692;28;20501;-76
2021/10/04 08:56:35;;;;;;;16.55;2.85;;;;;;;;;;4969497;28;20034;-77
2021/10/04 08:59:01;;;;;;;12.48;3.85;;;;;;;;;;4968785;28;20035;-78
2021/10/04 09:01:27;;;;;;;17.30;3.60;;;;;;;;;;4972243;28;20041;-76
2021/10/04 09:03:57;;;;;;;15.65;3.08;;;;;;;;;;4981466;28;20034;-75
2021/10/04 09:06:26;;;;;;;14.18;2.80;;;;;;;;;;4972675;28;20033;-75
2021/10/04 09:08:53;;;;;;;13.00;3.00;;;;;;;;;;4978358;28;20076;-75
2021/10/04 09:11:27;;;;;;;11.00;2.92;;;;;;;;;;4985307;28;20068;-75
2021/10/04 09:13:53;;;;;;;10.70;2.83;;;;;;;;;;4977977;28;20157;-77
2021/10/04 09:16:19;;;;;;;11.73;2.58;;;;;;;;;;4988432;28;20105;-77
2021/10/04 09:18:45;;;;;;;12.77;3.30;;;;;;;;;;4970548;28;20069;-75
2021/10/04 09:21:12;;;;;;;14.48;3.33;;;;;;;;;;4970489;28;20031;-77
2021/10/04 09:23:48;;;;;;;11.40;3.67;;;;;;;;;;4973678;28;20050;-77
2021/10/04 09:26:27;;;;;;;11.05;3.22;;;;;;;;;;4972898;28;20105;-74
2021/10/04 09:29:09;;;;;;;17.77;3.17;;;;;;;;;;4970107;28;20031;-75
2021/10/04 09:31:44;;;;;;;13.82;2.70;;;;;;;;;;4977228;28;20065;-75
2021/10/04 09:34:16;;;;;;;14.68;2.85;;;;;;;;;;4973124;28;20086;-77
2021/10/04 09:36:50;;;;;;;10.85;2.75;;;;;;;;;;4980165;28;20035;-74
2021/10/04 09:39:32;;;;;;;20.52;3.25;;;;;;;;;;4962351;28;20027;-76
2021/10/04 09:42:01;;;;;;;12.85;2.60;;;;;;;;;;4980477;28;20065;-75
2021/10/04 09:44:40;;;;;;;19.05;3.55;;;;;;;;;;4979333;28;20022;-76
2021/10/04 09:47:13;;;;;;;9.00;1.85;;;;;;;;;;4982619;28;20464;-77
2021/10/04 09:49:46;;;;;;;13.10;2.92;;;;;;;;;;4974410;28;20054;-76
2021/10/04 09:52:12;;;;;;;15.68;3.33;;;;;;;;;;4974792;28;20381;-75
2021/10/04 09:54:47;;;;;;;12.57;2.53;;;;;;;;;;5006983;28;20031;-75
2021/10/04 09:57:17;;;;;;;12.48;3.15;;;;;;;;;;4972607;28;20561;-75
2021/10/04 09:59:43;;;;;;;12.93;3.30;;;;;;;;;;4967765;28;20456;-77
2021/10/04 10:02:10;;;;;;;29.10;4.32;;;;;;;;;;4970675;28;20030;-75
2021/10/04 10:04:37;;;;;;;19.27;3.22;;;;;;;;;;4972768;28;20047;-75
2021/10/04 10:07:03;;;;;;;16.88;2.55;;;;;;;;;;4970997;28;20027;-76
2021/10/04 10:09:30;;;;;;;19.55;3.33;;;;;;;;;;4969083;28;20073;-75
2021/10/04 10:11:56;;;;;;;16.35;3.40;;;;;;;;;;4972026;28;20125;-75
2021/10/04 10:14:22;;;;;;;15.52;4.25;;;;;;;;;;4979295;28;20033;-73
2021/10/04 10:16:51;;;;;;;13.98;2.60;;;;;;;;;;4972103;28;20449;-75
2021/10/04 10:19:18;;;;;;;12.88;2.85;;;;;;;;;;4969572;28;20457;-76
2021/10/04 10:21:44;;;;;;;16.95;5.57;;;;;;;;;;4979413;28;20035;-73
2021/10/04 10:24:11;;;;;;;15.38;3.20;;;;;;;;;;5005625;28;20117;-74
2021/10/04 10:26:47;;;;;;;14.82;2.90;;;;;;;;;;4983834;28;20464;-74
2021/10/04 10:29:13;;;;;;;13.75;2.75;;;;;;;;;;4969855;28;20119;-74
2021/10/04 10:31:49;;;;;;;19.50;3.65;;;;;;;;;;4967004;28;20046;-74
2021/10/04 10:34:31;;;;;;;13.25;3.63;;;;;;;;;;4963820;28;20093;-76
2021/10/04 10:37:01;;;;;;;13.95;2.35;;;;;;;;;;4971144;28;20030;-74
2021/10/04 10:39:31;;;;;;;15.85;3.40;;;;;;;;;;4974557;28;20038;-75
2021/10/04 10:42:16;;;;;;;14.60;2.70;;;;;;;;;;4990382;28;20408;-76
2021/10/04 10:44:57;;;;;;;12.82;2.88;;;;;;;;;;4991855;28;20097;-75
2021/10/04 10:47:36;;;;;;;9.80;1.90;;;;;;;;;;4972803;28;20026;-76
2021/10/04 10:50:05;;;;;;;10.13;2.25;;;;;;;;;;4968267;28;20385;-76
2021/10/04 10:52:32;;;;;;;11.40;1.75;;;;;;;;;;4978804;28;20444;-76
2021/10/04 10:54:59;;;;;;;16.73;4.28;;;;;;;;;;4972210;28;20469;-77
2021/10/04 10:57:45;;;;;;;19.30;2.88;;;;;;;;;;4972769;28;20095;-77
2021/10/04 11:00:38;;;;;;;15.35;2.75;;;;;;;;;;4966514;28;20027;-77
2021/10/04 11:03:10;;;;;;;12.65;2.30;;;;;;;;;;4969640;28;20047;-78
2021/10/04 11:05:36;;;;;;;21.15;3.20;;;;;;;;;;4971588;28;20023;-76
2021/10/04 11:08:03;;;;;;;11.80;2.50;;;;;;;;;;4970575;28;20098;-75
2021/10/04 11:10:29;;;;;;;12.23;2.83;;;;;;;;;;4970879;28;20073;-76
2021/10/04 11:13:10;;;;;;;10.73;2.30;;;;;;;;;;4971515;28;20460;-76
2021/10/04 11:15:36;;;;;;;12.90;2.27;;;;;;;;;;4994979;28;20050;-76
2021/10/04 11:18:03;;;;;;;14.20;2.63;;;;;;;;;;4985170;28;20277;-75
2021/10/04 11:20:29;;;;;;;15.98;2.35;;;;;;;;;;4968965;28;20110;-76
2021/10/04 11:23:15;;;;;;;13.32;2.22;;;;;;;;;;4970932;28;20118;-77
2021/10/04 11:25:44;;;;;;;9.32;1.90;;;;;;;;;;4984820;28;20073;-76
2021/10/04 11:28:10;;;;;;;15.25;2.75;;;;;;;;;;4994831;28;20031;-75
2021/10/04 11:30:55;;;;;;;13.70;2.20;;;;;;;;;;4975906;28;20015;-76
2021/10/04 11:33:22;;;;;;;17.13;2.25;;;;;;;;;;4964481;28;20031;-76
2021/10/04 11:35:59;;;;;;;12.93;2.13;;;;;;;;;;4971213;28;20037;-75
2021/10/04 11:38:26;;;;;;;12.85;2.22;;;;;;;;;;4966882;28;20169;-76
2021/10/04 11:40:52;;;;;;;12.23;2.50;;;;;;;;;;4974126;28;20412;-76
2021/10/04 11:43:19;;;;;;;8.75;2.17;;;;;;;;;;4987534;28;20370;-75
2021/10/04 11:45:46;;;;;;;9.45;2.13;;;;;;;;;;4970267;28;20118;-76
2021/10/04 11:48:26;;;;;;;11.82;2.22;;;;;;;;;;4971890;28;20034;-76
2021/10/04 11:50:53;;;;;;;13.23;2.85;;;;;;;;;;4972038;28;20026;-74
2021/10/04 11:53:19;;;;;;;10.82;2.33;;;;;;;;;;4971539;28;20105;-75
2021/10/04 11:55:56;;;;;;;15.32;2.35;;;;;;;;;;4971540;28;20034;-75
2021/10/04 11:58:22;;;;;;;13.73;2.28;;;;;;;;;;4961612;28;20417;-75
2021/10/04 12:00:49;;;;;;;10.23;2.55;;;;;;;;;;4968498;28;20050;-76
2021/10/04 12:03:28;;;;;;;7.95;2.20;;;;;;;;;;4988593;28;20424;-76
2021/10/04 12:05:55;;;;;;;11.80;1.60;;;;;;;;;;4979834;28;20030;-76
2021/10/04 12:08:22;;;;;;;12.10;1.95;;;;;;;;;;4955670;28;20036;-75
2021/10/04 12:10:54;;;;;;;11.95;1.65;;;;;;;;;;4966536;28;20030;-76
2021/10/04 12:13:21;;;;;;;8.63;1.77;;;;;;;;;;5001882;28;20485;-76
2021/10/04 12:15:48;;;;;;;11.40;1.92;;;;;;;;;;4969601;28;20547;-76
2021/10/04 12:18:24;;;;;;;10.20;1.92;;;;;;;;;;4968138;28;20030;-74
2021/10/04 12:20:52;;;;;;;11.82;2.25;;;;;;;;;;4976548;28;20559;-75
2021/10/04 12:23:19;;;;;;;10.25;1.77;;;;;;;;;;4978767;28;20454;-77
2021/10/04 12:25:46;;;;;;;10.93;1.92;;;;;;;;;;4979361;28;20050;-74
2021/10/04 12:28:16;;;;;;;8.85;1.73;;;;;;;;;;4972843;28;20054;-74
2021/10/04 12:30:56;;;;;;;13.82;2.33;;;;;;;;;;4974446;28;20110;-74
2021/10/04 12:33:42;;;;;;;11.05;2.25;;;;;;;;;;4974518;28;20113;-74
2021/10/04 12:36:08;;;;;;;11.93;2.20;;;;;;;;;;4973419;28;20493;-75
2021/10/04 12:38:34;;;;;;;8.77;2.20;;;;;;;;;;4970658;28;20081;-75
2021/10/04 12:41:02;;;;;;;10.45;2.00;;;;;;;;;;4974191;28;20122;-74
2021/10/04 12:43:30;;;;;;;11.90;1.80;;;;;;;;;;4973283;28;20058;-74
2021/10/04 12:46:01;;;;;;;10.07;1.60;;;;;;;;;;4989750;28;20027;-74
2021/10/04 12:48:28;;;;;;;10.50;1.63;;;;;;;;;;4967725;28;20472;-74
2021/10/04 12:51:05;;;;;;;7.65;1.73;;;;;;;;;;4971598;28;20117;-74
2021/10/04 12:53:31;;;;;;;7.10;1.35;;;;;;;;;;4973027;28;20054;-75
2021/10/04 12:55:59;;;;;;;4.97;1.30;;;;;;;;;;4974076;28;20489;-74
2021/10/04 12:58:27;;;;;;;9.88;1.83;;;;;;;;;;4971716;28;20705;-74
2021/10/04 13:00:54;;;;;;;9.40;1.83;;;;;;;;;;4970602;28;20046;-73
2021/10/04 13:03:21;;;;;;;6.43;1.58;;;;;;;;;;4961712;28;20026;-74
2021/10/04 13:05:51;;;;;;;7.70;2.30;;;;;;;;;;4973338;28;20101;-73
2021/10/04 13:08:17;;;;;;;10.65;1.67;;;;;;;;;;4962883;28;20216;-73
2021/10/04 13:10:43;;;;;;;6.10;1.20;;;;;;;;;;4999471;28;20367;-73
2021/10/04 13:13:09;;;;;;;6.75;1.70;;;;;;;;;;4987216;28;20288;-74
2021/10/04 13:15:37;;;;;;;7.85;1.25;;;;;;;;;;4975265;28;20072;-74
2021/10/04 13:18:03;;;;;;;8.30;1.40;;;;;;;;;;4987021;28;20026;-73
2021/10/04 13:20:29;;;;;;;11.25;1.73;;;;;;;;;;4997534;28;20015;-73
2021/10/04 13:22:56;;;;;;;11.63;1.40;;;;;;;;;;4968992;28;20033;-74
2021/10/04 13:25:22;;;;;;;7.57;1.42;;;;;;;;;;4974031;28;20027;-74
2021/10/04 13:27:48;;;;;;;7.00;1.52;;;;;;;;;;4981438;28;20019;-73
2021/10/04 13:30:14;;;;;;;7.15;1.50;;;;;;;;;;4976655;28;20022;-73
2021/10/04 13:32:40;;;;;;;9.48;1.65;;;;;;;;;;4988456;28;20100;-73
2021/10/04 13:35:07;;;;;;;5.40;1.48;;;;;;;;;;4981438;28;20058;-73
2021/10/04 13:37:33;;;;;;;9.05;1.80;;;;;;;;;;4979719;28;20027;-73
2021/10/04 13:39:59;;;;;;;12.43;1.50;;;;;;;;;;4964613;28;20127;-73
2021/10/04 13:42:26;;;;;;;8.10;1.10;;;;;;;;;;4980705;28;20035;-73
2021/10/04 13:44:52;;;;;;;9.05;1.55;;;;;;;;;;4970905;28;20026;-73
2021/10/04 13:47:18;;;;;;;8.38;1.30;;;;;;;;;;4981823;28;20027;-74
2021/10/04 13:49:44;;;;;;;5.43;1.65;;;;;;;;;;4970201;28;20023;-73
2021/10/04 13:52:10;;;;;;;6.40;1.10;;;;;;;;;;4980512;28;20092;-73
2021/10/04 13:54:36;;;;;;;7.38;1.38;;;;;;;;;;4971431;28;20408;-73
2021/10/04 13:57:02;;;;;;;5.57;1.40;;;;;;;;;;4985078;28;20034;-73
2021/10/04 13:59:29;;;;;;;11.38;1.75;;;;;;;;;;4971412;28;20028;-73
2021/10/04 14:01:55;;;;;;;7.50;1.20;;;;;;;;;;4978444;28;20030;-73
2021/10/04 14:04:21;;;;;;;14.15;3.47;;;;;;;;;;4970502;28;20122;-73
2021/10/04 14:06:47;;;;;;;11.25;1.70;;;;;;;;;;4962365;28;20030;-72
2021/10/04 14:09:13;;;;;;;12.13;1.40;;;;;;;;;;4965051;28;20023;-73
2021/10/04 14:11:39;;;;;;;10.35;2.40;;;;;;;;;;4974724;28;20109;-73
2021/10/04 14:14:05;;;;;;;8.73;1.50;;;;;;;;;;4979656;28;20074;-73
2021/10/04 14:16:32;;;;;;;10.82;1.75;;;;;;;;;;4972566;28;20465;-73
2021/10/04 14:18:58;;;;;;;10.95;1.88;;;;;;;;;;4967656;28;20023;-73
2021/10/04 14:21:27;;;;;;;16.35;1.77;;;;;;;;;;4979185;28;20077;-74
2021/10/04 14:23:53;;;;;;;9.23;2.28;;;;;;;;;;4969344;28;20113;-73
2021/10/04 14:26:19;;;;;;;12.45;1.13;;;;;;;;;;4971242;28;20367;-73
2021/10/04 14:28:45;;;;;;;11.00;1.63;;;;;;;;;;4977284;28;20113;-74
2021/10/04 14:31:11;;;;;;;18.25;2.40;;;;;;;;;;4976304;28;20051;-74
2021/10/04 14:33:37;;;;;;;13.02;1.75;;;;;;;;;;4969805;28;20055;-74
2021/10/04 14:36:04;;;;;;;26.63;2.80;;;;;;;;;;4967958;28;20315;-74
2021/10/04 14:38:30;;;;;;;11.80;2.22;;;;;;;;;;4968432;28;20290;-74